Impacts METAR Board
IDs:

KFLL - Ft Lauderdale-Hollyw, FL, US

Updated at: 2300 UTC 01 Mar 2021
Potential Impact None Slight Moderate High
Time 01/11Z 01/12Z 01/13Z 01/14Z 01/15Z 01/16Z 01/17Z 01/18Z 01/19Z 01/20Z 01/21Z 01/22Z 01/23Z
Temp75 75 76 80 82 82 84 83 84 82 84 81 81
Dewpt70 70 69 69 68 69 70 69 70 70 70 70 70
Altim30.07 30.09 30.10 30.11 30.12 30.12 30.11 30.10 30.07 30.05 30.04 30.05 30.05
VIS10 10 10 10 10 10 10 10 10 10 10 10 10
CIG-- -- 45 45 40 40 40 250 -- -- -- -- --
CoverSCTSCTBKNBKNBKNOVCBKNBKNSCTSCTFEWFEWFEW
FltCatVFRVFRVFRVFRVFRVFRVFRVFRVFRVFRVFRVFRVFR
WX--------------------------
WDir140150170170160170150140140140160170160
WSpd8 8 7 12 10 9 11 11 16 16 13 11 12
WGst-- -- -- -- -- -- -- -- -- -- -- -- --
Raw hourly METARs
KFLL 011053Z 14008KT 10SM SCT022 SCT090 24/21 A3007 RMK AO2 SLP180 T02390211 $
KFLL 011153Z 15008KT 10SM SCT026 SCT090 24/21 A3009 RMK AO2 SLP188 T02390211 10239 20239 53008 $
KFLL 011253Z 17007KT 10SM SCT035 BKN045 BKN250 25/21 A3010 RMK AO2 SLP192 T02440206 $
KFLL 011353Z 17012KT 10SM SCT025 BKN045 BKN250 27/20 A3011 RMK AO2 SLP196 T02670206 $
KFLL 011453Z 16010KT 10SM SCT028 BKN040 28/20 A3012 RMK AO2 SLP198 T02780200 51010 $
KFLL 011553Z 17009KT 10SM SCT028 OVC040 28/21 A3012 RMK AO2 SLP200 T02780206 $
KFLL 011653Z 15011KT 10SM FEW028 BKN040 BKN065 29/21 A3011 RMK AO2 SLP195 T02890211 $
KFLL 011753Z 14011KT 10SM FEW035 SCT045 SCT065 BKN250 29/21 A3010 RMK T02850205
KFLL 011853Z 14016KT 10SM FEW035 SCT045 SCT250 29/21 A3007
KFLL 011953Z 14016KT 10SM FEW035 SCT045 28/21 A3005
KFLL 012055Z 16013KT 10SM FEW035 FEW300 29/21 A3004
KFLL 012154Z 17011KT 10SM FEW033 FEW300 27/21 A3005
KFLL 012253Z 16012KT 10SM FEW025 27/21 A3005



Page loaded:  23:23 UTC  |   03:23 PM Pacific  |   04:23 PM Mountain  |   05:23 PM Central  |   06:23 PM Eastern

 

ADVISORIES

FORECASTS

FORECASTS

OBSERVATIONS

USER TOOLS

ABOUT US